Terminal Aerodrome Forecast
Issued by NWS Mobile, AL

Home | Current Version | Previous Version | Text Only | Print | Product List | Glossary On
Versions: 1 2 3 4 5 6 7 8 9 10 11 12 13 14
000
FTUS44 KMOB 190551
TAFPNS
TAF
KPNS 190551Z 1906/2006 32005KT P6SM SCT250
     FM191800 19007KT P6SM VCTS SCT035CB BKN200
     FM200200 27004KT P6SM SCT200=

USA.gov is the U.S. government's official web portal to all federal, state and local government web resources and services.